SAS430 EKCH-ESGG
Flight info
| Callsign | SAS430 |
|---|---|
| Flight time | N/A |
| Altitude | 22000 |
| Route | VEDAR L997 RISMA |
| Aircraft | A320/M-SDE3FGHIRWY/LB1 |
Departure
| Time | N/A |
|---|---|
| Airport | Copenhagen Kastrup Airport (EKCH) |
Arrival
| Time | 2026-05-06 12:47 |
|---|---|
| Airport | Göteborg Landvetter Airport (ESGG) |
| Time | Latitude | Longitude | Altitude | Speed | Heading |
|---|---|---|---|---|---|
| 2026-05-06 12:30 | 56.77427 | 12.05544 | 21942 ft | 437 kts | 346° |
| 2026-05-06 12:30 | 56.80430 | 12.04695 | 21962 ft | 437 kts | 346° |
| 2026-05-06 12:30 | 56.83434 | 12.03844 | 21949 ft | 437 kts | 346° |
| 2026-05-06 12:31 | 56.86436 | 12.02989 | 21949 ft | 437 kts | 346° |
| 2026-05-06 12:31 | 56.89444 | 12.02133 | 21955 ft | 437 kts | 346° |
| 2026-05-06 12:31 | 56.92443 | 12.01279 | 21954 ft | 437 kts | 346° |
| 2026-05-06 12:31 | 56.95449 | 12.00420 | 21954 ft | 437 kts | 346° |
| 2026-05-06 12:32 | 56.98453 | 11.99560 | 21955 ft | 437 kts | 346° |
| 2026-05-06 12:32 | 57.01453 | 11.98698 | 21956 ft | 435 kts | 346° |
| 2026-05-06 12:32 | 57.04408 | 11.97960 | 21729 ft | 424 kts | 350° |
| 2026-05-06 12:32 | 57.07388 | 11.97817 | 20816 ft | 431 kts | 355° |
| 2026-05-06 12:33 | 57.10385 | 11.97806 | 20244 ft | 427 kts | 355° |
| 2026-05-06 12:33 | 57.13336 | 11.97825 | 19725 ft | 422 kts | 355° |
| 2026-05-06 12:33 | 57.16252 | 11.97848 | 19189 ft | 417 kts | 355° |
| 2026-05-06 12:33 | 57.18165 | 11.97859 | 18839 ft | 415 kts | 356° |
| 2026-05-06 12:34 | 57.21046 | 11.97863 | 18289 ft | 412 kts | 356° |
| 2026-05-06 12:34 | 57.23907 | 11.97854 | 17686 ft | 410 kts | 356° |
| 2026-05-06 12:34 | 57.26743 | 11.97843 | 17125 ft | 406 kts | 356° |
| 2026-05-06 12:34 | 57.29547 | 11.97826 | 16576 ft | 402 kts | 356° |
| 2026-05-06 12:35 | 57.32324 | 11.97805 | 16047 ft | 397 kts | 356° |
| 2026-05-06 12:35 | 57.35073 | 11.97786 | 15551 ft | 392 kts | 357° |
| 2026-05-06 12:35 | 57.37800 | 11.97772 | 14966 ft | 389 kts | 357° |
| 2026-05-06 12:35 | 57.40481 | 11.97762 | 14474 ft | 383 kts | 357° |
| 2026-05-06 12:36 | 57.43143 | 11.97752 | 13879 ft | 381 kts | 358° |
| 2026-05-06 12:36 | 57.45781 | 11.97741 | 13253 ft | 377 kts | 358° |
| 2026-05-06 12:36 | 57.48378 | 11.97729 | 12716 ft | 371 kts | 358° |
| 2026-05-06 12:36 | 57.50959 | 11.97713 | 12064 ft | 369 kts | 358° |
| 2026-05-06 12:37 | 57.53508 | 11.97760 | 11458 ft | 366 kts | 3° |
| 2026-05-06 12:37 | 57.56000 | 11.98604 | 10891 ft | 363 kts | 16° |
| 2026-05-06 12:37 | 57.58307 | 12.00413 | 10490 ft | 356 kts | 27° |
| 2026-05-06 12:37 | 57.60443 | 12.02539 | 10285 ft | 341 kts | 27° |
| 2026-05-06 12:38 | 57.62468 | 12.04524 | 9802 ft | 325 kts | 27° |
| 2026-05-06 12:38 | 57.64458 | 12.06461 | 9251 ft | 312 kts | 26° |
| 2026-05-06 12:38 | 57.66326 | 12.08279 | 8730 ft | 302 kts | 27° |
| 2026-05-06 12:38 | 57.68161 | 12.10069 | 8198 ft | 293 kts | 27° |
| 2026-05-06 12:39 | 57.69950 | 12.11818 | 7673 ft | 288 kts | 28° |
| 2026-05-06 12:39 | 57.71705 | 12.13537 | 7176 ft | 283 kts | 28° |
| 2026-05-06 12:39 | 57.73437 | 12.15241 | 6655 ft | 279 kts | 30° |
| 2026-05-06 12:39 | 57.75137 | 12.16916 | 6151 ft | 277 kts | 30° |
| 2026-05-06 12:40 | 57.76836 | 12.18590 | 5608 ft | 274 kts | 30° |
| 2026-05-06 12:40 | 57.78515 | 12.20242 | 5062 ft | 271 kts | 30° |
| 2026-05-06 12:40 | 57.80178 | 12.21883 | 4538 ft | 268 kts | 28° |
| 2026-05-06 12:40 | 57.81813 | 12.23499 | 4003 ft | 262 kts | 28° |
| 2026-05-06 12:41 | 57.83415 | 12.25083 | 3487 ft | 258 kts | 27° |
| 2026-05-06 12:41 | 57.84938 | 12.26784 | 3060 ft | 251 kts | 39° |
| 2026-05-06 12:41 | 57.86060 | 12.29107 | 3000 ft | 229 kts | 58° |
| 2026-05-06 12:41 | 57.86698 | 12.31702 | 3009 ft | 212 kts | 74° |
| 2026-05-06 12:42 | 57.86919 | 12.34372 | 3006 ft | 204 kts | 87° |
| 2026-05-06 12:42 | 57.86842 | 12.37020 | 3001 ft | 202 kts | 107° |
| 2026-05-06 12:42 | 57.86193 | 12.39337 | 3010 ft | 201 kts | 132° |
| 2026-05-06 12:42 | 57.85098 | 12.40901 | 3001 ft | 195 kts | 158° |
| 2026-05-06 12:43 | 57.83820 | 12.41460 | 3007 ft | 191 kts | 178° |
| 2026-05-06 12:43 | 57.82496 | 12.41581 | 3009 ft | 190 kts | 178° |
| 2026-05-06 12:43 | 57.81185 | 12.41415 | 3007 ft | 189 kts | 196° |
| 2026-05-06 12:43 | 57.79971 | 12.40490 | 3014 ft | 189 kts | 207° |
| 2026-05-06 12:44 | 57.78793 | 12.39420 | 3017 ft | 188 kts | 207° |
| 2026-05-06 12:44 | 57.77598 | 12.38324 | 2746 ft | 192 kts | 207° |
| 2026-05-06 12:44 | 57.76412 | 12.37236 | 2491 ft | 188 kts | 207° |
| 2026-05-06 12:44 | 57.75248 | 12.36170 | 2247 ft | 185 kts | 208° |
| 2026-05-06 12:45 | 57.74096 | 12.35115 | 1994 ft | 183 kts | 208° |
| 2026-05-06 12:45 | 57.73017 | 12.34131 | 1767 ft | 161 kts | 209° |
| 2026-05-06 12:45 | 57.71154 | 12.32423 | 1340 ft | 143 kts | 208° |
| 2026-05-06 12:46 | 57.70269 | 12.31594 | 1152 ft | 142 kts | 208° |
| 2026-05-06 12:46 | 57.69384 | 12.30782 | 938 ft | 142 kts | 208° |
| 2026-05-06 12:46 | 57.68496 | 12.29993 | 743 ft | 142 kts | 209° |
| 2026-05-06 12:46 | 57.67611 | 12.29188 | 558 ft | 141 kts | 208° |
| 2026-05-06 12:47 | 57.66803 | 12.28452 | 513 ft | 108 kts | 204° |
| 2026-05-06 12:47 | 57.66279 | 12.27977 | 510 ft | 59 kts | 206° |
| 2026-05-06 12:47 | 57.66007 | 12.27726 | 507 ft | 37 kts | 206° |
| 2026-05-06 12:47 | 57.65802 | 12.27661 | 505 ft | 9 kts | 176° |
| 2026-05-06 12:48 | 57.65733 | 12.27691 | 505 ft | 11 kts | 141° |
| 2026-05-06 12:48 | 57.65731 | 12.27819 | 505 ft | 12 kts | 41° |
| 2026-05-06 12:48 | 57.65808 | 12.27896 | 506 ft | 15 kts | 27° |
| 2026-05-06 12:48 | 57.65914 | 12.28003 | 507 ft | 20 kts | 26° |
| 2026-05-06 12:49 | 57.66031 | 12.28097 | 508 ft | 9 kts | 27° |
| 2026-05-06 12:49 | 57.66106 | 12.28168 | 509 ft | 15 kts | 27° |
| 2026-05-06 12:49 | 57.66214 | 12.28265 | 510 ft | 8 kts | 26° |
| 2026-05-06 12:49 | 57.66268 | 12.28312 | 511 ft | 8 kts | 26° |
| 2026-05-06 12:50 | 57.66333 | 12.28372 | 511 ft | 13 kts | 26° |
| 2026-05-06 12:50 | 57.66419 | 12.28450 | 511 ft | 15 kts | 26° |
| 2026-05-06 12:50 | 57.66520 | 12.28542 | 512 ft | 17 kts | 26° |
| 2026-05-06 12:50 | 57.66636 | 12.28649 | 512 ft | 20 kts | 26° |
| 2026-05-06 12:51 | 57.66765 | 12.28765 | 513 ft | 14 kts | 25° |
| 2026-05-06 12:51 | 57.66831 | 12.28862 | 513 ft | 11 kts | 83° |
| 2026-05-06 12:51 | 57.66805 | 12.28981 | 516 ft | 10 kts | 116° |
| 2026-05-06 12:51 | 57.66771 | 12.29112 | 516 ft | 12 kts | 116° |
| 2026-05-06 12:52 | 57.66741 | 12.29215 | 516 ft | 5 kts | 116° |
| 2026-05-06 12:52 | 57.66731 | 12.29255 | 516 ft | 1 kts | 115° |
| 2026-05-06 12:52 | 57.66727 | 12.29268 | 516 ft | 1 kts | 116° |
| 2026-05-06 12:52 | 57.66727 | 12.29272 | 516 ft | 0 kts | 114° |
| 2026-05-06 12:53 | 57.66726 | 12.29274 | 516 ft | 0 kts | 117° |